Time;durP1;ratioP1;P1;durP2;ratioP2;P2;SDS_P1;SDS_P2;PMS_P1;PMS_P2;Temp;Humidity;BMP_temperature;BMP_pressure;BME280_temperature;BME280_humidity;BME280_pressure;Samples;Min_cycle;Max_cycle;Signal;HPM_P1;HPM_P2
2022/09/18 00:01:38;;;;;;;16.60;2.00;;;;;;;8.75;100.00;99976.41;5072778;28;20083;-80
2022/09/18 00:04:06;;;;;;;17.65;2.33;;;;;;;8.75;100.00;99976.41;5050925;28;20024;-81
2022/09/18 00:06:51;;;;;;;14.85;3.17;;;;;;;8.75;100.00;99979.06;5070547;28;20250;-79
2022/09/18 00:09:52;;;;;;;12.38;2.38;;;;;;;8.77;100.00;99974.41;4989858;28;20055;-79
2022/09/18 00:12:19;;;;;;;17.20;3.13;;;;;;;8.73;100.00;99980.22;4983323;28;20062;-81
2022/09/18 00:14:44;;;;;;;12.32;2.67;;;;;;;8.77;100.00;99978.91;4973077;28;20141;-82
2022/09/18 00:17:10;;;;;;;12.15;1.88;;;;;;;8.71;100.00;99963.59;4983428;28;20416;-82
2022/09/18 00:23:23;;;;;;;20.70;2.75;;;;;;;8.73;100.00;99964.28;4991282;28;20038;-83
2022/09/18 00:25:58;;;;;;;19.20;2.97;;;;;;;8.73;100.00;99975.72;4999124;28;20026;-80
2022/09/18 00:28:48;;;;;;;17.63;2.65;;;;;;;8.66;100.00;99964.09;4991424;28;20110;-80
2022/09/18 00:31:17;;;;;;;18.20;2.40;;;;;;;8.70;100.00;99960.13;5006264;23;20417;-79
2022/09/18 00:33:43;;;;;;;17.52;3.22;;;;;;;8.65;100.00;99963.28;5040577;28;20028;-78
2022/09/18 00:36:15;;;;;;;19.60;2.40;;;;;;;8.61;100.00;99966.44;5023527;28;20033;-79
2022/09/18 00:38:41;;;;;;;17.58;3.17;;;;;;;8.65;100.00;99962.47;5041756;28;20057;-81
2022/09/18 00:41:11;;;;;;;25.17;3.08;;;;;;;8.58;100.00;99964.97;5032472;28;20086;-78
2022/09/18 00:43:37;;;;;;;21.75;3.30;;;;;;;8.52;100.00;99962.13;5044735;28;20086;-79
2022/09/18 00:46:07;;;;;;;15.18;2.78;;;;;;;8.48;100.00;99969.63;5047342;28;20476;-79
2022/09/18 00:48:46;;;;;;;20.15;2.38;;;;;;;8.43;100.00;99970.13;5044859;28;20039;-78
2022/09/18 00:51:14;;;;;;;16.90;2.58;;;;;;;8.49;100.00;99975.78;5045330;28;20028;-79
2022/09/18 00:53:43;;;;;;;17.33;2.65;;;;;;;8.49;100.00;99975.78;5064488;28;20032;-78
2022/09/18 00:56:13;;;;;;;13.45;2.35;;;;;;;8.55;100.00;99980.44;5044932;28;20119;-78
2022/09/18 00:58:39;;;;;;;20.25;2.47;;;;;;;8.61;100.00;99982.41;5043940;28;20281;-79
2022/09/18 01:01:06;;;;;;;21.55;2.85;;;;;;;8.63;100.00;99975.91;5039455;28;20020;-78
2022/09/18 01:03:31;;;;;;;17.15;2.88;;;;;;;8.72;100.00;99991.88;5047881;28;20041;-79
2022/09/18 01:06:12;;;;;;;17.13;3.00;;;;;;;8.72;100.00;99998.03;5047046;28;20028;-77
2022/09/18 01:09:23;;;;;;;22.67;3.47;;;;;;;8.76;100.00;99995.88;5041698;28;20064;-78
2022/09/18 01:12:05;;;;;;;24.33;3.65;;;;;;;8.80;100.00;99976.75;4980579;28;20031;-77
2022/09/18 01:14:48;;;;;;;24.25;4.05;;;;;;;8.84;100.00;99969.25;4985052;28;20042;-78
2022/09/18 01:17:24;;;;;;;19.67;3.55;;;;;;;8.90;100.00;99978.38;4968093;28;20053;-79
2022/09/18 01:19:59;;;;;;;21.90;2.35;;;;;;;8.97;100.00;99966.88;4987774;28;20045;-78
2022/09/18 01:22:46;;;;;;;13.50;3.17;;;;;;;8.98;100.00;99957.06;4984210;28;20043;-80
2022/09/18 01:25:31;;;;;;;25.88;3.25;;;;;;;8.92;100.00;99958.59;4984746;28;20044;-78
2022/09/18 01:28:00;;;;;;;22.65;3.85;;;;;;;8.91;100.00;99961.41;4994075;28;20030;-79
2022/09/18 01:30:26;;;;;;;16.23;2.28;;;;;;;8.87;100.00;99955.56;4984982;28;20476;-78
2022/09/18 01:33:02;;;;;;;12.83;2.33;;;;;;;8.92;100.00;99958.59;4986582;28;20030;-78
2022/09/18 01:36:02;;;;;;;11.27;2.83;;;;;;;8.97;100.00;99961.56;4994472;28;20281;-78
2022/09/18 01:38:39;;;;;;;11.60;2.00;;;;;;;9.00;100.00;99955.88;4945792;28;20043;-79
2022/09/18 01:41:20;;;;;;;9.85;2.05;;;;;;;8.97;100.00;99958.91;4928273;28;20043;-78
2022/09/18 01:43:53;;;;;;;18.75;2.33;;;;;;;8.99;100.00;99961.38;4986000;28;20038;-79
2022/09/18 01:46:18;;;;;;;17.58;3.17;;;;;;;8.99;100.00;99953.38;5002142;28;20048;-78
2022/09/18 01:48:54;;;;;;;8.70;2.70;;;;;;;8.91;100.00;99958.75;5001802;28;20091;-78
2022/09/18 01:51:28;;;;;;;15.40;2.30;;;;;;;8.81;100.00;99949.13;4986657;28;20125;-78
2022/09/18 01:54:00;;;;;;;12.40;2.47;;;;;;;8.87;100.00;99939.59;5000376;28;20041;-80
2022/09/18 01:56:35;;;;;;;13.45;2.40;;;;;;;8.90;100.00;99936.63;5005020;28;20049;-78
2022/09/18 01:59:08;;;;;;;18.65;2.78;;;;;;;8.91;100.00;99935.59;5006001;28;20029;-79
2022/09/18 02:01:52;;;;;;;17.17;3.30;;;;;;;8.97;100.00;99934.13;4990281;28;20117;-79
2022/09/18 02:04:26;;;;;;;20.08;2.22;;;;;;;9.00;100.00;99926.59;5005139;28;20034;-79
2022/09/18 02:07:06;;;;;;;10.55;3.47;;;;;;;9.03;100.00;99928.06;5005707;28;20034;-78
2022/09/18 02:09:32;;;;;;;10.65;2.30;;;;;;;8.98;100.00;99919.78;4990514;28;20046;-78
2022/09/18 02:12:02;;;;;;;12.55;2.35;;;;;;;8.95;100.00;99914.81;4990030;28;20069;-80
2022/09/18 02:14:37;;;;;;;19.65;2.88;;;;;;;8.91;100.00;99916.16;5023571;28;20516;-80
2022/09/18 02:17:20;;;;;;;;;;;;;;;8.82;100.00;99923.31;5067283;28;20508;-79
2022/09/18 02:20:09;;;;;;;16.75;2.13;;;;;;;8.80;100.00;99933.31;5051656;28;19912;-79
2022/09/18 02:22:37;;;;;;;16.85;3.05;;;;;;;8.80;100.00;99925.31;5066312;28;20505;-79
2022/09/18 02:25:06;;;;;;;25.38;2.75;;;;;;;8.76;100.00;99927.50;5046510;28;20028;-80
2022/09/18 02:27:35;;;;;;;18.65;2.97;;;;;;;8.72;100.00;99928.03;5034218;28;20032;-77
2022/09/18 02:30:05;;;;;;;20.15;2.35;;;;;;;8.75;100.00;99935.66;5035356;28;20066;-78
2022/09/18 02:32:31;;;;;;;12.10;2.40;;;;;;;8.67;100.00;99936.50;5068140;28;20412;-79
2022/09/18 02:34:56;;;;;;;22.45;3.30;;;;;;;8.58;100.00;99938.34;5053409;28;20082;-77
2022/09/18 02:37:36;;;;;;;23.83;2.38;;;;;;;8.76;100.00;99943.47;5050925;28;20032;-78
2022/09/18 02:40:29;;;;;;;26.10;2.90;;;;;;;8.71;100.00;99943.16;5069131;28;20036;-78
2022/09/18 02:43:09;;;;;;;13.30;2.83;;;;;;;8.78;100.00;99940.63;5068531;28;20132;-80
2022/09/18 02:46:16;;;;;;;23.90;5.15;;;;;;;8.79;100.00;99934.31;5057092;28;20500;-78
2022/09/18 02:48:47;;;;;;;18.65;3.25;;;;;;;8.81;100.00;99938.47;5035318;28;20044;-77
2022/09/18 02:51:35;;;;;;;19.55;2.63;;;;;;;8.76;100.00;99932.84;5060926;28;20400;-78
2022/09/18 02:54:21;;;;;;;13.07;2.90;;;;;;;8.75;100.00;99930.34;5050543;28;20123;-78
2022/09/18 02:57:00;;;;;;;15.25;2.05;;;;;;;8.75;100.00;99928.50;5039909;28;20043;-77
2022/09/18 02:59:35;;;;;;;22.05;3.38;;;;;;;8.77;100.00;99923.84;5042066;28;20068;-77
2022/09/18 03:02:02;;;;;;;21.85;3.30;;;;;;;8.79;100.00;99916.50;5068704;28;20982;-77
2022/09/18 03:04:29;;;;;;;18.70;2.25;;;;;;;8.79;100.00;99915.69;5069287;28;20408;-80
2022/09/18 03:07:08;;;;;;;18.35;3.22;;;;;;;8.79;100.00;99911.19;5052801;28;20016;-78
2022/09/18 03:09:40;;;;;;;10.23;2.35;;;;;;;8.83;100.00;99914.34;5061715;28;20032;-80
2022/09/18 03:12:05;;;;;;;14.67;3.27;;;;;;;8.82;100.00;99916.16;5055431;28;20024;-81
2022/09/18 03:14:36;;;;;;;15.80;2.28;;;;;;;8.88;100.00;99922.66;5052890;28;20930;-79
2022/09/18 03:17:01;;;;;;;25.23;3.43;;;;;;;8.85;100.00;99917.69;5049835;28;20074;-79
2022/09/18 03:19:27;;;;;;;12.13;2.10;;;;;;;8.79;100.00;99905.88;5054631;28;20033;-81
2022/09/18 03:21:54;;;;;;;22.55;2.67;;;;;;;8.79;100.00;99913.03;5039372;28;20287;-80
2022/09/18 03:24:24;;;;;;;21.60;2.78;;;;;;;8.75;100.00;99930.34;5046789;28;20027;-80
2022/09/18 03:26:51;;;;;;;19.58;3.20;;;;;;;8.79;100.00;99936.97;5043188;28;20024;-81
2022/09/18 03:29:16;;;;;;;15.52;3.15;;;;;;;8.71;100.00;99934.31;5033457;28;20500;-78
2022/09/18 03:31:42;;;;;;;20.88;3.63;;;;;;;8.76;100.00;99935.50;5044072;28;20031;-81
2022/09/18 03:34:09;;;;;;;17.88;2.20;;;;;;;8.78;100.00;99932.66;5048041;28;20029;-81
2022/09/18 03:36:36;;;;;;;19.38;3.92;;;;;;;8.72;100.00;99931.50;5064235;28;20082;-81
2022/09/18 03:39:01;;;;;;;15.67;3.43;;;;;;;8.71;100.00;99935.19;5052781;28;20028;-78
2022/09/18 03:41:28;;;;;;;12.63;1.95;;;;;;;8.67;100.00;99923.22;5049181;28;20822;-80
2022/09/18 03:43:55;;;;;;;23.00;3.20;;;;;;;8.63;100.00;99935.19;5050346;28;20405;-80
2022/09/18 03:46:23;;;;;;;20.93;3.47;;;;;;;8.61;100.00;99940.66;5052310;28;20032;-82
2022/09/18 03:48:51;;;;;;;17.80;2.45;;;;;;;8.66;100.00;99946.34;5055034;28;20345;-81
2022/09/18 03:51:18;;;;;;;;;;;;;;;8.57;100.00;99949.16;5030384;28;20032;-81
2022/09/18 03:53:44;;;;;;;13.40;1.73;;;;;;;8.43;100.00;99935.56;5047294;28;19908;-81
2022/09/18 03:56:28;;;;;;;14.20;3.78;;;;;;;8.38;100.00;99929.88;5063593;28;20069;-80
2022/09/18 03:59:04;;;;;;;27.08;4.38;;;;;;;8.41;100.00;99945.53;5038338;28;20024;-81
2022/09/18 04:01:46;;;;;;;21.00;2.03;;;;;;;8.43;100.00;99948.88;5037007;28;20107;-79
2022/09/18 04:04:27;;;;;;;17.52;3.08;;;;;;;8.43;100.00;99940.88;5067351;28;20819;-79
2022/09/18 04:07:22;;;;;;;;;;;;;;;8.53;100.00;99939.88;5005194;28;20513;-81
2022/09/18 04:10:10;;;;;;;10.30;2.60;;;;;;;8.50;100.00;99935.72;5049431;28;19962;-81
2022/09/18 04:12:37;;;;;;;14.00;2.53;;;;;;;8.48;100.00;99932.41;5049217;28;20417;-79
2022/09/18 04:15:17;;;;;;;13.70;3.50;;;;;;;8.51;100.00;99924.06;5055258;28;20070;-80
2022/09/18 04:17:45;;;;;;;13.98;2.47;;;;;;;8.48;100.00;99918.28;5069908;28;20028;-79
2022/09/18 04:20:10;;;;;;;13.63;1.97;;;;;;;8.45;100.00;99909.63;5049717;28;20872;-81
2022/09/18 04:22:36;;;;;;;11.13;1.50;;;;;;;8.38;100.00;99903.28;5044423;28;20508;-79
2022/09/18 04:25:03;;;;;;;13.02;2.28;;;;;;;8.41;100.00;99913.63;5046577;28;20488;-80
2022/09/18 04:27:29;;;;;;;13.95;1.90;;;;;;;8.40;100.00;99911.94;5052854;28;20090;-80
2022/09/18 04:29:54;;;;;;;12.33;2.50;;;;;;;8.39;100.00;99920.91;5053423;28;20480;-81
2022/09/18 04:32:21;;;;;;;11.27;2.05;;;;;;;8.38;100.00;99919.25;5044483;28;20029;-79
2022/09/18 04:34:46;;;;;;;12.17;1.57;;;;;;;8.36;100.00;99910.59;5050419;28;20575;-78
2022/09/18 04:37:12;;;;;;;11.00;1.83;;;;;;;8.39;100.00;99918.25;5068425;28;20105;-79
2022/09/18 04:39:38;;;;;;;10.03;1.70;;;;;;;8.41;100.00;99918.09;5047651;28;20032;-80
2022/09/18 04:42:04;;;;;;;12.20;2.23;;;;;;;8.45;100.00;99914.94;5063891;28;20048;-80
2022/09/18 04:44:29;;;;;;;7.95;1.10;;;;;;;8.54;100.00;99917.56;5048395;28;20017;-81
2022/09/18 04:46:56;;;;;;;9.13;1.80;;;;;;;8.56;100.00;99921.72;5033253;28;20036;-80
2022/09/18 04:49:21;;;;;;;15.93;2.70;;;;;;;8.51;100.00;99915.25;5054149;28;20031;-78
2022/09/18 04:51:47;;;;;;;15.02;2.42;;;;;;;8.51;100.00;99924.06;5036315;28;20033;-81
2022/09/18 04:54:14;;;;;;;14.60;1.77;;;;;;;8.47;100.00;99927.22;5036862;28;20028;-81
2022/09/18 04:56:41;;;;;;;12.63;1.50;;;;;;;8.49;100.00;99930.56;5037747;28;20050;-81
2022/09/18 04:59:07;;;;;;;15.05;1.50;;;;;;;8.40;100.00;99919.91;5038593;28;20090;-81
2022/09/18 05:01:34;;;;;;;11.32;3.10;;;;;;;8.50;100.00;99913.59;5050153;28;20080;-80
2022/09/18 05:04:07;;;;;;;17.00;2.83;;;;;;;8.56;100.00;99931.53;5054184;28;20855;-78
2022/09/18 05:06:48;;;;;;;9.32;1.60;;;;;;;8.62;100.00;99933.53;5047123;28;20116;-81
2022/09/18 05:09:15;;;;;;;13.57;1.90;;;;;;;8.62;100.00;99928.22;5051354;28;20033;-81
2022/09/18 05:11:40;;;;;;;18.03;2.10;;;;;;;8.72;100.00;99936.81;5051415;28;20081;-79
2022/09/18 05:14:06;;;;;;;14.50;3.37;;;;;;;8.70;100.00;99928.19;5066698;28;20031;-80
2022/09/18 05:16:32;;;;;;;;;;;;;;;8.83;100.00;99951.63;5065220;28;20028;-79
2022/09/18 05:19:16;;;;;;;14.73;2.25;;;;;;;8.77;100.00;99942.47;5072822;28;19923;-79
2022/09/18 05:21:42;;;;;;;9.10;1.67;;;;;;;8.83;100.00;99956.94;5032163;28;20025;-79
2022/09/18 05:24:08;;;;;;;11.98;2.03;;;;;;;8.79;100.00;99945.78;5030481;28;20048;-77
2022/09/18 05:26:59;;;;;;;8.40;2.80;;;;;;;8.86;100.00;99970.72;5071236;28;20118;-80
2022/09/18 05:29:27;;;;;;;18.33;1.95;;;;;;;8.73;100.00;99962.44;5012750;28;20060;-80
2022/09/18 05:31:59;;;;;;;12.70;3.70;;;;;;;8.80;100.00;99967.91;4981357;28;20037;-79
2022/09/18 05:34:25;;;;;;;22.00;2.53;;;;;;;8.83;100.00;99980.91;4997062;28;20049;-80
2022/09/18 05:36:50;;;;;;;17.53;3.57;;;;;;;8.88;100.00;99976.72;4997071;28;20117;-79
2022/09/18 05:39:15;;;;;;;12.33;2.63;;;;;;;9.03;100.00;99978.66;4980702;28;20212;-80
2022/09/18 05:41:41;;;;;;;24.87;2.70;;;;;;;9.04;100.00;99975.84;4979503;28;20041;-80
2022/09/18 05:44:06;;;;;;;10.40;1.83;;;;;;;9.01;100.00;99978.00;4981186;28;20034;-81
2022/09/18 05:46:31;;;;;;;7.13;1.90;;;;;;;9.14;100.00;99986.28;5011770;28;20038;-82
2022/09/18 05:48:59;;;;;;;16.88;2.35;;;;;;;9.17;100.00;99982.44;4980283;28;20034;-81
2022/09/18 05:51:25;;;;;;;13.77;2.27;;;;;;;9.15;100.00;99990.59;4979162;28;20025;-79
2022/09/18 05:53:50;;;;;;;13.53;2.17;;;;;;;9.15;100.00;99979.13;4979925;28;20285;-79
2022/09/18 05:56:35;;;;;;;17.13;1.95;;;;;;;9.17;100.00;99983.28;4983439;28;20725;-79
2022/09/18 05:59:01;;;;;;;17.60;2.77;;;;;;;9.29;100.00;99975.75;4979602;28;20040;-82
2022/09/18 06:01:29;;;;;;;14.93;1.83;;;;;;;9.40;100.00;99975.38;4977825;28;20113;-80
2022/09/18 06:04:14;;;;;;;11.27;2.05;;;;;;;9.39;100.00;99948.88;4980671;28;20034;-79
2022/09/18 06:07:00;;;;;;;9.00;1.95;;;;;;;9.41;100.00;99939.75;5041958;28;20036;-79
2022/09/18 06:09:26;;;;;;;17.33;2.42;;;;;;;9.29;100.00;99946.44;5052834;28;20025;-83
2022/09/18 06:11:52;;;;;;;10.23;1.67;;;;;;;9.37;100.00;99948.25;5034894;28;20522;-82
2022/09/18 06:14:18;;;;;;;12.73;2.30;;;;;;;9.14;100.00;99951.66;5051913;28;20705;-81
2022/09/18 06:16:45;;;;;;;7.15;1.83;;;;;;;8.93;100.00;99938.09;5038632;28;20107;-81
2022/09/18 06:19:11;;;;;;;9.23;1.20;;;;;;;8.94;100.00;99956.56;5035319;28;20020;-79
2022/09/18 06:21:37;;;;;;;13.65;1.85;;;;;;;8.78;100.00;99938.81;5060698;28;20028;-80
2022/09/18 06:24:05;;;;;;;15.60;1.48;;;;;;;8.64;100.00;99955.50;5037159;28;20029;-81
2022/09/18 06:26:47;;;;;;;10.88;1.80;;;;;;;8.57;100.00;99963.31;5056553;28;20020;-80
2022/09/18 06:29:13;;;;;;;5.70;1.00;;;;;;;8.59;100.00;99977.28;5036953;28;20033;-79
2022/09/18 06:31:46;;;;;;;8.35;2.35;;;;;;;8.48;100.00;99976.78;5067690;28;20020;-80
2022/09/18 06:34:17;;;;;;;12.25;1.40;;;;;;;8.59;100.00;99992.38;5059620;28;20032;-81
2022/09/18 06:36:44;;;;;;;11.65;2.30;;;;;;;8.59;100.00;99989.72;5033419;28;20116;-81
2022/09/18 06:39:28;;;;;;;10.27;1.25;;;;;;;8.80;100.00;100007.84;5039608;28;20071;-80
2022/09/18 06:41:58;;;;;;;11.93;2.22;;;;;;;8.94;100.00;100024.94;5041782;28;20513;-78
2022/09/18 06:44:46;;;;;;;11.93;2.33;;;;;;;9.00;100.00;100024.28;5054164;28;20036;-80
2022/09/18 06:47:13;;;;;;;8.82;2.13;;;;;;;9.30;100.00;100023.53;5054058;28;20050;-79
2022/09/18 06:49:42;;;;;;;7.90;1.45;;;;;;;9.23;100.00;99995.91;5070143;28;20017;-81
2022/09/18 06:52:07;;;;;;;6.23;1.13;;;;;;;9.08;100.00;99976.31;5028515;28;20075;-80
2022/09/18 06:54:35;;;;;;;13.32;2.60;;;;;;;9.16;100.00;99975.47;5069077;28;20413;-78
2022/09/18 06:57:01;;;;;;;10.55;1.40;;;;;;;9.17;100.00;99972.63;5053922;28;20025;-80
2022/09/18 06:59:28;;;;;;;10.27;1.50;;;;;;;9.17;100.00;99982.44;5069860;28;20036;-80
2022/09/18 07:01:53;;;;;;;9.10;1.30;;;;;;;9.09;100.00;99972.66;5053986;28;20029;-80
2022/09/18 07:04:30;;;;;;;10.05;1.58;;;;;;;9.15;100.00;99984.44;5068616;28;20437;-80
2022/09/18 07:06:57;;;;;;;10.13;1.40;;;;;;;9.17;100.00;99988.59;5053484;28;20096;-80
2022/09/18 07:09:25;;;;;;;9.70;1.38;;;;;;;9.95;100.00;100005.56;5036397;28;20063;-79
2022/09/18 07:11:51;;;;;;;6.50;1.17;;;;;;;10.73;100.00;100008.97;5052213;28;20041;-80
2022/09/18 07:14:16;;;;;;;12.23;2.63;;;;;;;11.01;100.00;99969.13;5064399;28;20033;-80
2022/09/18 07:16:42;;;;;;;14.17;2.70;;;;;;;11.35;100.00;99938.31;5033871;28;20048;-81
2022/09/18 07:19:07;;;;;;;12.97;1.47;;;;;;;11.07;100.00;99887.41;5034472;28;20024;-81
2022/09/18 07:21:34;;;;;;;11.95;1.95;;;;;;;10.94;100.00;99861.38;5048936;28;20094;-82
2022/09/18 07:24:00;;;;;;;6.07;2.20;;;;;;;10.72;100.00;99865.81;5071243;28;20052;-83
2022/09/18 07:26:25;;;;;;;8.97;1.40;;;;;;;11.17;100.00;99875.44;5050552;28;20036;-82
2022/09/18 07:28:51;;;;;;;13.18;2.25;;;;;;;11.88;100.00;99892.66;5033809;28;20479;-80
2022/09/18 07:31:21;;;;;;;12.43;1.60;;;;;;;11.98;100.00;99850.34;5051379;28;20867;-79
2022/09/18 07:33:52;;;;;;;7.90;1.35;;;;;;;12.30;100.00;99832.06;5053254;28;20035;-81
2022/09/18 07:36:20;;;;;;;12.13;2.67;;;;;;;12.57;100.00;99785.69;5068323;28;20032;-80
2022/09/18 07:38:51;;;;;;;6.45;1.40;;;;;;;12.98;100.00;99758.00;5070063;28;20118;-82
2022/09/18 07:41:18;;;;;;;7.18;1.27;;;;;;;13.17;100.00;99721.56;5067716;28;20037;-81
2022/09/18 07:43:47;;;;;;;11.10;1.27;;;;;;;13.44;100.00;99668.00;5043735;28;20051;-80
2022/09/18 07:46:13;;;;;;;9.60;2.10;;;;;;;13.22;100.00;99587.75;5042573;28;20431;-81
2022/09/18 07:48:39;;;;;;;9.13;1.70;;;;;;;12.86;100.00;99554.19;5075955;28;20040;-82
2022/09/18 07:51:09;;;;;;;9.02;1.42;;;;;;;12.12;100.00;99547.09;5026721;28;20024;-82
2022/09/18 07:53:36;;;;;;;6.55;1.85;;;;;;;12.66;100.00;99623.78;5033407;28;20031;-80
2022/09/18 07:56:07;;;;;;;;;;;;;;;13.16;100.00;99627.97;5047957;28;20046;-78
2022/09/18 07:58:35;;;;;;;9.23;1.52;;;;;;;13.75;100.00;99613.69;5069452;28;19935;-82
2022/09/18 08:01:09;;;;;;;13.00;1.98;;;;;;;13.80;100.00;99492.34;5035126;28;20021;-80
2022/09/18 08:03:42;;;;;;;9.82;1.48;;;;;;;14.00;100.00;99471.59;5039113;28;20063;-81
2022/09/18 08:06:08;;;;;;;11.77;1.53;;;;;;;14.60;100.00;99511.47;5048808;28;20063;-82
2022/09/18 08:08:35;;;;;;;13.10;1.93;;;;;;;13.99;100.00;99343.81;5049350;28;20021;-82
2022/09/18 08:11:14;;;;;;;7.88;1.83;;;;;;;14.72;100.00;99310.91;5058354;28;20035;-82
2022/09/18 08:13:58;;;;;;;9.02;2.15;;;;;;;14.78;100.00;99296.59;5056736;28;20043;-80
2022/09/18 08:16:44;;;;;;;11.38;2.97;;;;;;;15.05;100.00;99272.06;5045489;28;20036;-80
2022/09/18 08:19:45;;;;;;;9.73;2.35;;;;;;;15.46;100.00;99326.13;4966037;28;20574;-79
2022/09/18 08:22:19;;;;;;;7.97;1.98;;;;;;;15.38;100.00;99055.66;5038626;28;20047;-78
2022/09/18 08:24:49;;;;;;;11.05;3.30;;;;;;;15.56;100.00;99063.59;5043085;28;20081;-78
2022/09/18 08:27:14;;;;;;;7.63;2.43;;;;;;;15.90;100.00;99174.13;5049214;28;20044;-78
2022/09/18 08:29:41;;;;;;;7.33;1.80;;;;;;;15.93;100.00;99101.00;5028545;28;20020;-79
2022/09/18 08:32:09;;;;;;;11.77;2.25;;;;;;;16.00;100.00;98913.25;5041455;28;20099;-78
2022/09/18 08:34:35;;;;;;;;;;;;;;;16.00;100.00;98886.34;5048530;28;20024;-79
2022/09/18 08:37:00;;;;;;;9.45;2.20;;;;;;;16.08;100.00;98858.22;5046863;28;19962;-78
2022/09/18 08:39:44;;;;;;;7.05;1.40;;;;;;;15.93;100.00;98907.22;5047654;28;20055;-79
2022/09/18 08:43:01;;;;;;;14.73;1.70;;;;;;;16.17;100.00;98732.91;5036746;28;20032;-80
2022/09/18 08:45:39;;;;;;;10.48;1.70;;;;;;;15.83;100.00;98751.81;5031955;28;20481;-78
2022/09/18 08:48:26;;;;;;;9.40;1.95;;;;;;;15.75;100.00;98612.31;5050496;28;20025;-77
2022/09/18 08:51:02;;;;;;;6.63;2.20;;;;;;;16.87;100.00;98928.13;5050272;28;20036;-79
2022/09/18 08:53:43;;;;;;;10.73;2.10;;;;;;;15.95;100.00;98497.94;5050120;28;20119;-78
2022/09/18 08:56:32;;;;;;;9.73;1.50;;;;;;;16.32;100.00;98541.13;5044220;28;20924;-78
2022/09/18 08:59:43;;;;;;;12.27;2.42;;;;;;;16.80;100.00;98872.78;5024514;28;20137;-77
2022/09/18 09:02:41;;;;;;;10.65;1.98;;;;;;;16.41;97.71;98484.94;5008152;28;20021;-79
2022/09/18 09:05:13;;;;;;;8.60;2.33;;;;;;;15.84;98.53;98435.13;4972910;28;20037;-77
2022/09/18 09:07:57;;;;;;;8.15;1.40;;;;;;;16.00;100.00;98854.06;5025275;28;20565;-77
2022/09/18 09:10:40;;;;;;;9.70;2.15;;;;;;;14.81;100.00;98722.28;5024932;28;20045;-78
2022/09/18 09:13:30;;;;;;;7.78;2.05;;;;;;;14.71;100.00;98878.69;5008754;28;20033;-78
2022/09/18 09:16:08;;;;;;;7.93;2.00;;;;;;;14.90;100.00;98702.06;5012739;28;20049;-79
2022/09/18 09:18:59;;;;;;;12.30;1.45;;;;;;;15.18;100.00;98953.88;5000724;28;20037;-78
2022/09/18 09:21:42;;;;;;;6.07;1.75;;;;;;;16.60;100.00;98925.28;5007503;28;20264;-78
2022/09/18 09:24:21;;;;;;;6.65;1.30;;;;;;;16.99;98.20;98750.09;5015510;28;20049;-78
2022/09/18 09:27:20;;;;;;;8.32;1.80;;;;;;;16.28;90.33;98324.63;5008172;28;20044;-79
2022/09/18 09:30:12;;;;;;;5.45;1.60;;;;;;;14.98;95.74;98449.91;5021183;28;20574;-78
2022/09/18 09:32:54;;;;;;;5.85;1.63;;;;;;;13.72;97.93;98380.47;5008177;28;20439;-78
2022/09/18 09:35:47;;;;;;;7.63;1.10;;;;;;;12.85;100.00;98571.50;4995581;28;20434;-77
2022/09/18 09:38:35;;;;;;;3.95;0.93;;;;;;;14.38;100.00;99029.59;5059726;28;20851;-79
2022/09/18 09:41:10;;;;;;;9.57;1.25;;;;;;;15.34;96.16;98686.97;5044594;28;20606;-78
2022/09/18 09:43:48;;;;;;;7.40;1.90;;;;;;;15.63;91.38;98555.91;5045829;28;20830;-78
2022/09/18 09:46:34;;;;;;;3.85;1.02;;;;;;;15.96;87.35;98398.09;5046283;28;20083;-77
2022/09/18 09:49:17;;;;;;;2.33;1.10;;;;;;;15.28;85.99;98224.78;5037285;28;20502;-76
2022/09/18 09:52:16;;;;;;;3.15;1.30;;;;;;;15.76;86.75;98454.41;5042511;28;20504;-80
2022/09/18 09:54:42;;;;;;;6.10;1.60;;;;;;;15.49;84.63;98266.91;5068457;28;20036;-79
2022/09/18 09:57:20;;;;;;;4.88;1.25;;;;;;;16.18;87.21;98634.13;5052063;28;20031;-79
2022/09/18 10:00:13;;;;;;;5.70;1.05;;;;;;;15.52;89.99;98648.28;5053671;28;20932;-78
2022/09/18 10:03:03;;;;;;;6.90;1.20;;;;;;;15.95;87.19;98587.56;5052310;28;20118;-77
2022/09/18 10:05:49;;;;;;;6.57;1.50;;;;;;;16.19;86.55;98598.06;5046342;28;20033;-79
2022/09/18 10:08:32;;;;;;;7.82;1.27;;;;;;;15.55;92.02;98766.09;5052757;28;20135;-77
2022/09/18 10:11:01;;;;;;;6.88;1.88;;;;;;;14.55;98.93;98899.81;5046973;28;20060;-78
2022/09/18 10:13:52;;;;;;;5.28;1.05;;;;;;;13.52;100.00;98801.78;5029615;28;20029;-78
2022/09/18 10:16:25;;;;;;;3.97;1.45;;;;;;;13.23;100.00;99072.19;5050443;28;20036;-76
2022/09/18 10:18:52;;;;;;;5.93;0.93;;;;;;;12.94;100.00;98974.56;5051213;28;20024;-77
2022/09/18 10:21:23;;;;;;;4.10;0.95;;;;;;;12.76;100.00;98913.78;5035549;28;20025;-78
2022/09/18 10:24:00;;;;;;;4.28;1.15;;;;;;;13.11;100.00;99108.78;5035917;28;20024;-78
2022/09/18 10:26:33;;;;;;;4.70;1.00;;;;;;;14.12;100.00;99074.53;5051231;28;20063;-77
2022/09/18 10:28:59;;;;;;;5.82;0.90;;;;;;;15.42;93.52;99005.72;5052388;28;20043;-77
2022/09/18 10:31:49;;;;;;;3.63;0.80;;;;;;;15.70;85.40;98592.56;5051919;28;20028;-76
2022/09/18 10:34:48;;;;;;;4.28;0.60;;;;;;;15.53;82.57;98417.81;5069062;28;20067;-78
2022/09/18 10:37:28;;;;;;;3.08;0.52;;;;;;;16.13;83.18;98652.88;5048656;28;20055;-78
2022/09/18 10:40:00;;;;;;;9.77;1.45;;;;;;;16.02;82.00;98582.78;5052010;28;20032;-77
2022/09/18 10:42:36;;;;;;;5.63;1.25;;;;;;;16.78;80.27;98653.91;5050565;28;20076;-77
2022/09/18 10:45:27;;;;;;;7.90;1.73;;;;;;;16.48;79.14;98487.41;5049277;28;20049;-78
2022/09/18 10:48:21;;;;;;;5.93;0.90;;;;;;;15.37;83.27;98556.59;5031785;28;20053;-78
2022/09/18 10:50:52;;;;;;;3.83;1.40;;;;;;;15.74;86.74;98930.00;5045662;28;20059;-78
2022/09/18 10:53:41;;;;;;;5.90;1.10;;;;;;;15.04;84.83;98581.66;5048504;28;20115;-78
2022/09/18 10:56:19;;;;;;;6.30;1.17;;;;;;;13.81;87.09;98537.22;5048258;28;20032;-77
2022/09/18 10:58:45;;;;;;;4.78;1.00;;;;;;;13.19;85.15;98333.34;5031981;28;20024;-78
2022/09/18 11:01:12;;;;;;;6.75;0.88;;;;;;;12.98;86.20;98442.72;5031692;28;20059;-79
2022/09/18 11:03:44;;;;;;;3.05;1.55;;;;;;;12.45;86.17;98304.47;5045807;28;20056;-77
2022/09/18 11:06:19;;;;;;;1.38;0.70;;;;;;;12.48;91.71;98683.22;5046108;28;20047;-76
2022/09/18 11:08:48;;;;;;;3.08;1.00;;;;;;;12.07;92.46;98613.34;5064224;28;20122;-78
2022/09/18 11:11:25;;;;;;;3.35;0.80;;;;;;;13.25;95.91;99136.25;5037502;28;20036;-78
2022/09/18 11:13:59;;;;;;;5.07;0.90;;;;;;;13.89;92.57;99049.22;5047994;28;20029;-79
2022/09/18 11:16:37;;;;;;;7.10;1.02;;;;;;;13.26;94.15;98951.13;5070301;28;20028;-78
2022/09/18 11:19:22;;;;;;;3.05;0.73;;;;;;;14.00;95.83;99222.06;5054605;28;20397;-79
2022/09/18 11:21:50;;;;;;;4.57;0.80;;;;;;;13.65;88.87;98729.19;5051066;28;20035;-78
2022/09/18 11:24:25;;;;;;;4.03;0.90;;;;;;;15.10;88.54;99094.81;5061950;28;20026;-79
2022/09/18 11:27:01;;;;;;;1.58;0.60;;;;;;;15.74;84.91;98999.97;5053657;28;20036;-77
2022/09/18 11:29:33;;;;;;;4.97;0.93;;;;;;;15.66;78.55;98543.00;5035183;28;20036;-78
2022/09/18 11:32:17;;;;;;;4.00;1.20;;;;;;;15.46;80.34;98630.41;5051315;28;20083;-80
2022/09/18 11:34:50;;;;;;;6.30;1.05;;;;;;;16.78;78.93;98902.63;5051998;28;20097;-78
2022/09/18 11:37:47;;;;;;;6.22;1.00;;;;;;;16.94;74.83;98574.06;5061279;28;20033;-78
2022/09/18 11:40:21;;;;;;;2.35;0.90;;;;;;;16.77;76.26;98714.28;5038016;28;20024;-76
2022/09/18 11:42:51;;;;;;;2.25;0.50;;;;;;;17.54;76.39;98893.94;5036906;28;20025;-77
2022/09/18 11:45:44;;;;;;;1.67;0.75;;;;;;;17.44;73.41;98586.28;5043481;28;20428;-77
2022/09/18 11:48:19;;;;;;;2.35;1.25;;;;;;;17.96;74.02;98798.81;5034043;28;20101;-76
2022/09/18 11:50:45;;;;;;;3.78;0.98;;;;;;;16.92;68.24;97981.41;5068284;28;20500;-76
2022/09/18 11:53:22;;;;;;;3.78;0.82;;;;;;;16.84;68.73;98111.31;5070577;28;20034;-79
2022/09/18 11:56:12;;;;;;;3.65;0.85;;;;;;;16.24;70.33;98213.13;5068995;28;20025;-79
2022/09/18 11:58:44;;;;;;;2.15;0.80;;;;;;;15.43;71.17;98004.47;5057216;28;20062;-76
2022/09/18 12:01:34;;;;;;;3.38;0.80;;;;;;;14.51;76.85;98312.50;5068678;28;20497;-78
2022/09/18 12:04:18;;;;;;;2.70;0.63;;;;;;;13.89;78.58;98416.19;5067726;28;20568;-77
2022/09/18 12:07:09;;;;;;;3.72;0.73;;;;;;;14.59;77.82;98586.00;5049759;28;20443;-78